Time;durP1;ratioP1;P1;durP2;ratioP2;P2;SDS_P1;SDS_P2;PMS_P1;PMS_P2;Temp;Humidity;BMP_temperature;BMP_pressure;BME280_temperature;BME280_humidity;BME280_pressure;Samples;Min_cycle;Max_cycle;Signal;HPM_P1;HPM_P2
2022/03/08 00:00:08;;;;;;;15.50;13.30;;;;;;;;;;518634;28;1438;-78
2022/03/08 00:00:26;;;;;;;16.52;13.55;;;;;;;;;;519788;28;1020;-78
2022/03/08 00:00:41;;;;;;;15.98;13.40;;;;;;;;;;521461;28;2029;-78
2022/03/08 00:00:56;;;;;;;15.77;13.33;;;;;;;;;;521829;28;1137;-78
2022/03/08 00:01:12;;;;;;;14.60;13.10;;;;;;;;;;521625;28;1236;-78
2022/03/08 00:01:28;;;;;;;14.43;12.93;;;;;;;;;;520945;28;741;-78
2022/03/08 00:01:43;;;;;;;14.50;13.00;;;;;;;;;;521029;28;790;-78
2022/03/08 00:01:59;;;;;;;14.60;13.10;;;;;;;;;;520809;28;911;-78
2022/03/08 00:02:14;;;;;;;15.77;13.30;;;;;;;;;;520519;28;851;-78
2022/03/08 00:02:30;;;;;;;19.83;13.33;;;;;;;;;;520948;28;769;-79
2022/03/08 00:02:45;;;;;;;18.83;13.25;;;;;;;;;;521061;28;880;-78
2022/03/08 00:03:01;;;;;;;14.70;13.10;;;;;;;;;;521079;28;824;-78
2022/03/08 00:03:18;;;;;;;15.00;13.40;;;;;;;;;;521762;28;792;-78
2022/03/08 00:03:34;;;;;;;15.30;13.70;;;;;;;;;;522077;28;776;-78
2022/03/08 00:03:49;;;;;;;15.63;13.70;;;;;;;;;;521889;28;918;-78
2022/03/08 00:04:04;;;;;;;15.53;13.77;;;;;;;;;;521952;28;800;-78
2022/03/08 00:04:19;;;;;;;15.43;13.53;;;;;;;;;;521614;28;1274;-78
2022/03/08 00:04:35;;;;;;;15.73;13.18;;;;;;;;;;521336;28;839;-77
2022/03/08 00:04:50;;;;;;;15.47;13.30;;;;;;;;;;521622;28;1257;-78
2022/03/08 00:05:06;;;;;;;14.87;13.27;;;;;;;;;;521776;28;1257;-78
2022/03/08 00:05:22;;;;;;;15.45;13.85;;;;;;;;;;519679;28;1246;-78
2022/03/08 00:05:37;;;;;;;16.13;14.35;;;;;;;;;;519747;28;768;-78
2022/03/08 00:05:52;;;;;;;16.50;13.70;;;;;;;;;;517581;28;1188;-78
2022/03/08 00:06:08;;;;;;;15.83;13.60;;;;;;;;;;517528;28;1326;-78
2022/03/08 00:06:23;;;;;;;15.47;13.77;;;;;;;;;;517307;28;1142;-78
2022/03/08 00:06:38;;;;;;;16.05;14.02;;;;;;;;;;517720;28;863;-78
2022/03/08 00:06:55;;;;;;;15.97;14.27;;;;;;;;;;517998;28;848;-78
2022/03/08 00:07:10;;;;;;;15.57;13.90;;;;;;;;;;520082;28;851;-78
2022/03/08 00:07:28;;;;;;;15.35;13.13;;;;;;;;;;519864;28;1277;-78
2022/03/08 00:07:45;;;;;;;15.05;12.93;;;;;;;;;;520369;28;796;-78
2022/03/08 00:08:01;;;;;;;15.80;13.60;;;;;;;;;;522009;28;1327;-78
2022/03/08 00:08:16;;;;;;;16.17;13.73;;;;;;;;;;518920;28;1286;-78
2022/03/08 00:08:31;;;;;;;15.30;13.35;;;;;;;;;;517721;28;1006;-78
2022/03/08 00:08:47;;;;;;;14.73;13.10;;;;;;;;;;515839;28;1157;-78
2022/03/08 00:09:02;;;;;;;14.67;13.17;;;;;;;;;;515775;28;1118;-78
2022/03/08 00:09:17;;;;;;;14.93;13.35;;;;;;;;;;516615;28;1134;-78
2022/03/08 00:09:33;;;;;;;15.00;13.40;;;;;;;;;;517311;28;1155;-78
2022/03/08 00:09:48;;;;;;;14.80;13.27;;;;;;;;;;517970;28;941;-78
2022/03/08 00:10:06;;;;;;;14.77;13.27;;;;;;;;;;515492;28;1467;-78
2022/03/08 00:10:22;;;;;;;14.95;13.35;;;;;;;;;;517751;28;1423;-78
2022/03/08 00:10:37;;;;;;;16.05;13.60;;;;;;;;;;517587;28;1302;-78
2022/03/08 00:10:52;;;;;;;15.57;13.53;;;;;;;;;;518433;28;749;-78
2022/03/08 00:11:09;;;;;;;15.40;13.50;;;;;;;;;;520473;28;745;-78
2022/03/08 00:11:24;;;;;;;15.50;13.40;;;;;;;;;;521575;28;839;-78
2022/03/08 00:11:40;;;;;;;16.07;13.40;;;;;;;;;;521815;28;776;-78
2022/03/08 00:11:55;;;;;;;15.73;13.63;;;;;;;;;;521888;28;752;-78
2022/03/08 00:12:11;;;;;;;16.00;13.73;;;;;;;;;;521721;28;1162;-78
2022/03/08 00:12:26;;;;;;;15.73;13.40;;;;;;;;;;521590;28;915;-78
2022/03/08 00:12:42;;;;;;;15.23;13.03;;;;;;;;;;521560;28;847;-78
2022/03/08 00:12:57;;;;;;;16.13;13.50;;;;;;;;;;519697;28;1242;-78
2022/03/08 00:13:12;;;;;;;15.77;13.50;;;;;;;;;;519806;28;919;-78
2022/03/08 00:13:28;;;;;;;15.40;13.55;;;;;;;;;;517845;28;1300;-78
2022/03/08 00:13:43;;;;;;;15.63;13.63;;;;;;;;;;517930;28;895;-78
2022/03/08 00:13:59;;;;;;;15.87;13.40;;;;;;;;;;518214;28;777;-78
2022/03/08 00:14:14;;;;;;;16.08;13.68;;;;;;;;;;517746;28;1199;-78
2022/03/08 00:14:29;;;;;;;15.47;13.20;;;;;;;;;;517709;28;883;-78
2022/03/08 00:14:45;;;;;;;16.00;13.07;;;;;;;;;;515410;28;1163;-78
2022/03/08 00:15:00;;;;;;;16.57;13.47;;;;;;;;;;517840;28;1290;-78
2022/03/08 00:15:18;;;;;;;15.25;13.30;;;;;;;;;;518176;28;784;-79
2022/03/08 00:15:34;;;;;;;14.93;13.30;;;;;;;;;;519919;28;986;-78
2022/03/08 00:15:49;;;;;;;15.80;13.37;;;;;;;;;;519991;28;812;-78
2022/03/08 00:16:04;;;;;;;15.60;13.27;;;;;;;;;;520400;28;807;-78
2022/03/08 00:16:20;;;;;;;16.30;13.40;;;;;;;;;;521791;28;953;-78
2022/03/08 00:16:35;;;;;;;16.52;13.57;;;;;;;;;;522245;28;728;-78
2022/03/08 00:16:51;;;;;;;15.53;13.50;;;;;;;;;;521388;28;1123;-78
2022/03/08 00:17:06;;;;;;;15.13;13.50;;;;;;;;;;521349;28;919;-78
2022/03/08 00:17:21;;;;;;;15.80;13.53;;;;;;;;;;521661;28;780;-78
2022/03/08 00:17:37;;;;;;;17.27;13.75;;;;;;;;;;521608;28;784;-78
2022/03/08 00:17:54;;;;;;;17.20;13.97;;;;;;;;;;521851;28;729;-78
2022/03/08 00:18:10;;;;;;;17.30;13.70;;;;;;;;;;520516;28;1338;-78
2022/03/08 00:18:25;;;;;;;17.10;13.50;;;;;;;;;;521955;28;1477;-78
2022/03/08 00:18:40;;;;;;;15.35;13.52;;;;;;;;;;520102;28;1532;-78
2022/03/08 00:18:56;;;;;;;15.00;13.40;;;;;;;;;;519805;28;776;-78
2022/03/08 00:19:11;;;;;;;14.90;13.20;;;;;;;;;;520046;28;840;-78
2022/03/08 00:19:26;;;;;;;14.60;13.00;;;;;;;;;;519898;28;1195;-78
2022/03/08 00:19:42;;;;;;;15.40;13.00;;;;;;;;;;520171;28;1986;-78
2022/03/08 00:19:57;;;;;;;16.95;13.23;;;;;;;;;;522049;28;1194;-78
2022/03/08 00:20:13;;;;;;;17.00;13.50;;;;;;;;;;521630;28;1148;-78
2022/03/08 00:20:30;;;;;;;16.07;13.57;;;;;;;;;;521866;28;1303;-78
2022/03/08 00:20:45;;;;;;;16.27;13.57;;;;;;;;;;521792;28;788;-77
2022/03/08 00:21:01;;;;;;;17.20;13.50;;;;;;;;;;521674;28;839;-77
2022/03/08 00:21:17;;;;;;;15.43;12.93;;;;;;;;;;521398;28;794;-78
2022/03/08 00:21:33;;;;;;;14.18;12.68;;;;;;;;;;521925;28;1023;-77
2022/03/08 00:21:48;;;;;;;15.77;13.40;;;;;;;;;;520448;28;1438;-77
2022/03/08 00:22:03;;;;;;;16.33;13.77;;;;;;;;;;521099;28;894;-77
2022/03/08 00:22:19;;;;;;;15.65;13.95;;;;;;;;;;520594;28;769;-78
2022/03/08 00:22:35;;;;;;;15.57;13.90;;;;;;;;;;521983;28;990;-77
2022/03/08 00:22:51;;;;;;;15.32;13.45;;;;;;;;;;521739;28;756;-78
2022/03/08 00:23:07;;;;;;;15.48;13.75;;;;;;;;;;521723;28;1469;-77
2022/03/08 00:23:22;;;;;;;15.30;13.70;;;;;;;;;;521952;28;764;-77
2022/03/08 00:23:37;;;;;;;15.63;13.83;;;;;;;;;;521917;28;1256;-77
2022/03/08 00:23:53;;;;;;;16.48;13.80;;;;;;;;;;521852;28;784;-77
2022/03/08 00:24:08;;;;;;;16.43;13.70;;;;;;;;;;521984;28;800;-77
2022/03/08 00:24:23;;;;;;;15.80;13.40;;;;;;;;;;522091;28;823;-77
2022/03/08 00:24:39;;;;;;;15.07;13.43;;;;;;;;;;521794;28;753;-77
2022/03/08 00:24:54;;;;;;;15.77;13.77;;;;;;;;;;521898;28;993;-77
2022/03/08 00:25:11;;;;;;;16.20;13.83;;;;;;;;;;521447;28;1251;-77
2022/03/08 00:25:26;;;;;;;16.15;14.02;;;;;;;;;;522008;28;902;-77
2022/03/08 00:25:42;;;;;;;17.23;14.60;;;;;;;;;;521945;28;836;-77
2022/03/08 00:25:59;;;;;;;17.40;14.73;;;;;;;;;;519828;28;1128;-77
2022/03/08 00:26:15;;;;;;;16.17;14.48;;;;;;;;;;517944;28;1575;-77
2022/03/08 00:26:31;;;;;;;15.82;14.13;;;;;;;;;;517962;28;1222;-77
2022/03/08 00:26:46;;;;;;;15.40;13.80;;;;;;;;;;518045;28;797;-77
2022/03/08 00:27:02;;;;;;;15.75;14.07;;;;;;;;;;518656;28;880;-77
2022/03/08 00:27:17;;;;;;;16.13;14.40;;;;;;;;;;517542;28;1144;-77
2022/03/08 00:27:32;;;;;;;16.13;14.23;;;;;;;;;;518097;28;816;-77
2022/03/08 00:27:48;;;;;;;16.37;14.37;;;;;;;;;;518415;28;1497;-77
2022/03/08 00:28:03;;;;;;;16.20;14.50;;;;;;;;;;517929;28;1215;-77
2022/03/08 00:28:19;;;;;;;16.45;14.65;;;;;;;;;;518230;28;875;-77
2022/03/08 00:28:34;;;;;;;18.27;14.90;;;;;;;;;;517721;28;1335;-77
2022/03/08 00:28:49;;;;;;;18.85;15.18;;;;;;;;;;517783;28;848;-77
2022/03/08 00:29:05;;;;;;;17.67;14.73;;;;;;;;;;517593;28;1089;-77
2022/03/08 00:29:20;;;;;;;16.97;14.57;;;;;;;;;;517563;28;974;-77
2022/03/08 00:29:35;;;;;;;17.13;14.68;;;;;;;;;;517340;28;1250;-77
2022/03/08 00:29:50;;;;;;;16.53;14.50;;;;;;;;;;520087;28;855;-77
2022/03/08 00:30:06;;;;;;;16.00;14.30;;;;;;;;;;521860;28;816;-77
2022/03/08 00:30:24;;;;;;;15.75;14.10;;;;;;;;;;522434;28;935;-77
2022/03/08 00:30:39;;;;;;;15.90;14.20;;;;;;;;;;522059;28;1433;-77
2022/03/08 00:30:56;;;;;;;16.70;14.23;;;;;;;;;;522115;28;757;-77
2022/03/08 00:31:11;;;;;;;17.33;14.10;;;;;;;;;;521609;28;812;-77
2022/03/08 00:31:26;;;;;;;16.43;14.10;;;;;;;;;;521504;28;729;-77
2022/03/08 00:31:42;;;;;;;15.40;13.80;;;;;;;;;;521863;28;737;-77
2022/03/08 00:31:57;;;;;;;15.60;13.90;;;;;;;;;;521821;28;867;-77
2022/03/08 00:32:12;;;;;;;15.70;13.90;;;;;;;;;;519821;28;1147;-77
2022/03/08 00:32:28;;;;;;;15.63;13.40;;;;;;;;;;520378;28;821;-77
2022/03/08 00:32:43;;;;;;;16.30;13.35;;;;;;;;;;521796;28;955;-78
2022/03/08 00:32:59;;;;;;;15.55;13.20;;;;;;;;;;519818;28;1119;-77
2022/03/08 00:33:14;;;;;;;14.60;13.03;;;;;;;;;;519764;28;733;-77
2022/03/08 00:33:29;;;;;;;14.93;13.33;;;;;;;;;;519605;28;812;-77
2022/03/08 00:33:45;;;;;;;15.07;13.50;;;;;;;;;;518995;28;1429;-77
2022/03/08 00:34:01;;;;;;;15.47;13.30;;;;;;;;;;516838;28;1658;-77
2022/03/08 00:34:16;;;;;;;15.98;13.05;;;;;;;;;;518844;28;1477;-78
2022/03/08 00:34:31;;;;;;;14.77;12.95;;;;;;;;;;519489;28;923;-77
2022/03/08 00:34:47;;;;;;;14.70;13.13;;;;;;;;;;517818;28;1147;-78
2022/03/08 00:35:03;;;;;;;14.30;12.80;;;;;;;;;;519840;28;768;-78
2022/03/08 00:35:20;;;;;;;13.80;12.40;;;;;;;;;;519827;28;1123;-78
2022/03/08 00:35:36;;;;;;;14.48;12.88;;;;;;;;;;519469;28;1209;-77
2022/03/08 00:35:52;;;;;;;15.50;13.30;;;;;;;;;;518475;28;1286;-78
2022/03/08 00:36:08;;;;;;;15.77;13.10;;;;;;;;;;519853;28;797;-78
2022/03/08 00:36:23;;;;;;;14.95;13.18;;;;;;;;;;517814;28;1334;-78
2022/03/08 00:36:38;;;;;;;14.65;12.95;;;;;;;;;;518777;28;730;-78
2022/03/08 00:36:54;;;;;;;14.73;12.70;;;;;;;;;;519883;28;923;-78
2022/03/08 00:37:09;;;;;;;14.20;12.53;;;;;;;;;;519693;28;927;-78
2022/03/08 00:37:24;;;;;;;14.10;12.60;;;;;;;;;;519813;28;776;-78
2022/03/08 00:37:40;;;;;;;14.20;12.70;;;;;;;;;;519853;28;898;-78
2022/03/08 00:37:58;;;;;;;13.85;12.40;;;;;;;;;;522128;28;777;-78
2022/03/08 00:38:13;;;;;;;14.27;12.60;;;;;;;;;;522219;28;839;-78
2022/03/08 00:38:29;;;;;;;15.00;12.97;;;;;;;;;;522200;28;939;-77
2022/03/08 00:38:44;;;;;;;14.45;12.80;;;;;;;;;;522160;28;839;-78
2022/03/08 00:38:59;;;;;;;14.23;12.70;;;;;;;;;;521928;28;1288;-78
2022/03/08 00:39:15;;;;;;;14.20;12.70;;;;;;;;;;522002;28;717;-78
2022/03/08 00:39:30;;;;;;;14.27;12.77;;;;;;;;;;521740;28;733;-78
2022/03/08 00:39:45;;;;;;;14.37;12.87;;;;;;;;;;521613;28;1921;-78
2022/03/08 00:40:02;;;;;;;14.20;12.70;;;;;;;;;;521170;28;1294;-78
2022/03/08 00:40:21;;;;;;;14.05;12.55;;;;;;;;;;522109;28;776;-78
2022/03/08 00:40:36;;;;;;;13.57;12.18;;;;;;;;;;521313;28;1313;-78
2022/03/08 00:40:51;;;;;;;13.87;12.23;;;;;;;;;;519998;28;1324;-78
2022/03/08 00:41:06;;;;;;;14.07;12.50;;;;;;;;;;517119;28;1138;-78
2022/03/08 00:41:22;;;;;;;13.90;12.43;;;;;;;;;;515518;28;804;-78
2022/03/08 00:41:38;;;;;;;14.00;12.45;;;;;;;;;;515493;28;745;-77
2022/03/08 00:41:53;;;;;;;14.47;12.70;;;;;;;;;;515551;28;1149;-78
2022/03/08 00:42:11;;;;;;;15.23;12.57;;;;;;;;;;515835;28;1225;-78
2022/03/08 00:42:27;;;;;;;15.88;12.70;;;;;;;;;;516547;28;923;-78
2022/03/08 00:42:42;;;;;;;15.37;12.50;;;;;;;;;;518475;28;844;-78
2022/03/08 00:42:57;;;;;;;14.25;12.25;;;;;;;;;;520221;28;1096;-78
2022/03/08 00:43:13;;;;;;;14.67;12.73;;;;;;;;;;520951;28;1247;-78
2022/03/08 00:43:28;;;;;;;15.07;12.60;;;;;;;;;;520641;28;1164;-78
2022/03/08 00:43:44;;;;;;;16.23;12.60;;;;;;;;;;522292;28;1394;-78
2022/03/08 00:43:59;;;;;;;17.30;13.00;;;;;;;;;;523413;28;958;-78
2022/03/08 00:44:14;;;;;;;16.17;12.77;;;;;;;;;;522067;28;959;-78
2022/03/08 00:44:30;;;;;;;14.93;12.37;;;;;;;;;;521775;28;864;-78
2022/03/08 00:44:45;;;;;;;14.47;12.30;;;;;;;;;;519433;28;1286;-78
2022/03/08 00:45:01;;;;;;;14.30;11.82;;;;;;;;;;519895;28;972;-78
2022/03/08 00:45:17;;;;;;;14.15;11.70;;;;;;;;;;519964;28;761;-78
2022/03/08 00:45:32;;;;;;;14.97;12.13;;;;;;;;;;521931;28;919;-78
2022/03/08 00:45:47;;;;;;;15.15;12.07;;;;;;;;;;521653;28;753;-78
2022/03/08 00:46:03;;;;;;;13.40;11.70;;;;;;;;;;521812;28;697;-78
2022/03/08 00:46:18;;;;;;;13.40;12.00;;;;;;;;;;519771;28;1150;-78
2022/03/08 00:46:33;;;;;;;13.93;12.13;;;;;;;;;;520098;28;899;-78
2022/03/08 00:46:49;;;;;;;13.93;12.03;;;;;;;;;;521836;28;717;-78
2022/03/08 00:47:05;;;;;;;13.37;11.93;;;;;;;;;;519561;28;1578;-78
2022/03/08 00:47:20;;;;;;;13.40;11.95;;;;;;;;;;519681;28;1021;-78
2022/03/08 00:47:38;;;;;;;13.40;11.93;;;;;;;;;;519769;28;864;-78
2022/03/08 00:47:53;;;;;;;13.82;12.15;;;;;;;;;;519579;28;788;-78
2022/03/08 00:48:09;;;;;;;13.73;12.20;;;;;;;;;;520468;28;883;-78
2022/03/08 00:48:24;;;;;;;13.75;11.95;;;;;;;;;;521890;28;907;-78
2022/03/08 00:48:39;;;;;;;13.30;11.80;;;;;;;;;;519267;28;1448;-78
2022/03/08 00:48:55;;;;;;;13.33;11.93;;;;;;;;;;520638;28;1196;-78
2022/03/08 00:49:11;;;;;;;14.05;12.43;;;;;;;;;;521991;28;780;-78
2022/03/08 00:49:26;;;;;;;14.23;12.38;;;;;;;;;;520005;28;1325;-78
2022/03/08 00:49:42;;;;;;;13.90;12.37;;;;;;;;;;519492;28;1165;-78
2022/03/08 00:49:57;;;;;;;13.85;12.25;;;;;;;;;;517682;28;958;-78
2022/03/08 00:50:17;;;;;;;14.50;12.30;;;;;;;;;;517566;28;1243;-78
2022/03/08 00:50:34;;;;;;;13.48;11.95;;;;;;;;;;518839;28;839;-78
2022/03/08 00:50:49;;;;;;;13.00;11.70;;;;;;;;;;519940;28;784;-78
2022/03/08 00:51:05;;;;;;;13.18;11.88;;;;;;;;;;519757;28;1104;-78
2022/03/08 00:51:20;;;;;;;13.50;12.10;;;;;;;;;;520816;28;781;-78
2022/03/08 00:51:35;;;;;;;13.60;12.00;;;;;;;;;;522026;28;756;-78
2022/03/08 00:51:51;;;;;;;13.40;11.97;;;;;;;;;;519895;28;1104;-78
2022/03/08 00:52:07;;;;;;;13.35;11.95;;;;;;;;;;519673;28;1038;-78
2022/03/08 00:52:22;;;;;;;13.27;11.57;;;;;;;;;;519643;28;989;-78
2022/03/08 00:52:38;;;;;;;13.67;11.77;;;;;;;;;;519946;28;883;-78
2022/03/08 00:52:54;;;;;;;13.35;11.95;;;;;;;;;;520003;28;796;-78
2022/03/08 00:53:09;;;;;;;13.77;12.07;;;;;;;;;;521894;28;852;-78
2022/03/08 00:53:25;;;;;;;14.47;12.20;;;;;;;;;;521777;28;1438;-78
2022/03/08 00:53:40;;;;;;;13.50;12.10;;;;;;;;;;521849;28;1201;-78
2022/03/08 00:53:56;;;;;;;13.45;12.05;;;;;;;;;;522122;28;934;-78
2022/03/08 00:54:11;;;;;;;13.13;11.73;;;;;;;;;;521467;28;1143;-78
2022/03/08 00:54:27;;;;;;;13.30;11.90;;;;;;;;;;522040;28;820;-78
2022/03/08 00:54:42;;;;;;;13.87;12.40;;;;;;;;;;519482;28;1326;-78
2022/03/08 00:54:57;;;;;;;13.70;12.20;;;;;;;;;;520054;28;778;-78
2022/03/08 00:55:14;;;;;;;13.32;11.63;;;;;;;;;;517688;28;1186;-78
2022/03/08 00:55:34;;;;;;;13.32;11.43;;;;;;;;;;519873;28;1081;-78
2022/03/08 00:55:49;;;;;;;14.13;11.70;;;;;;;;;;519573;28;1386;-78
2022/03/08 00:56:05;;;;;;;14.07;11.67;;;;;;;;;;519269;28;1222;-78
2022/03/08 00:56:20;;;;;;;14.53;11.37;;;;;;;;;;517592;28;1826;-78
2022/03/08 00:56:35;;;;;;;14.23;11.18;;;;;;;;;;516505;28;1502;-78
2022/03/08 00:56:50;;;;;;;13.97;11.70;;;;;;;;;;517748;28;896;-78
2022/03/08 00:57:06;;;;;;;14.00;11.80;;;;;;;;;;518733;28;741;-78
2022/03/08 00:57:21;;;;;;;12.95;11.27;;;;;;;;;;519874;28;753;-78
2022/03/08 00:57:37;;;;;;;13.30;11.20;;;;;;;;;;520280;28;741;-78
2022/03/08 00:57:53;;;;;;;13.50;11.40;;;;;;;;;;519838;28;1271;-78
2022/03/08 00:58:08;;;;;;;13.13;11.65;;;;;;;;;;519664;28;1238;-77
2022/03/08 00:58:24;;;;;;;12.90;11.43;;;;;;;;;;517876;28;1356;-77
2022/03/08 00:58:41;;;;;;;12.45;11.15;;;;;;;;;;519858;28;1435;-77
2022/03/08 00:58:56;;;;;;;13.38;11.35;;;;;;;;;;519840;28;789;-77
2022/03/08 00:59:11;;;;;;;13.83;11.43;;;;;;;;;;519816;28;752;-77
2022/03/08 00:59:27;;;;;;;13.37;11.27;;;;;;;;;;517716;28;1128;-78
2022/03/08 00:59:42;;;;;;;12.75;11.02;;;;;;;;;;517347;28;1954;-77
2022/03/08 00:59:57;;;;;;;12.67;11.30;;;;;;;;;;515791;28;1242;-77
2022/03/08 01:00:14;;;;;;;13.17;11.57;;;;;;;;;;516150;28;1338;-77
2022/03/08 01:00:31;;;;;;;14.05;11.32;;;;;;;;;;517264;28;958;-77
2022/03/08 01:00:47;;;;;;;13.68;11.15;;;;;;;;;;517890;28;919;-77
2022/03/08 01:01:03;;;;;;;13.65;11.70;;;;;;;;;;517784;28;824;-77
2022/03/08 01:01:18;;;;;;;14.75;12.20;;;;;;;;;;518257;28;827;-77
2022/03/08 01:01:34;;;;;;;14.85;12.55;;;;;;;;;;518434;28;1272;-77
2022/03/08 01:01:49;;;;;;;13.97;12.23;;;;;;;;;;519838;28;1171;-77
2022/03/08 01:02:04;;;;;;;13.80;11.77;;;;;;;;;;519842;28;1175;-77
2022/03/08 01:02:20;;;;;;;13.93;11.70;;;;;;;;;;519742;28;966;-77
2022/03/08 01:02:35;;;;;;;13.93;11.87;;;;;;;;;;519523;28;784;-77
2022/03/08 01:02:51;;;;;;;13.97;12.00;;;;;;;;;;519857;28;911;-77
2022/03/08 01:03:06;;;;;;;13.07;11.67;;;;;;;;;;519811;28;721;-77
2022/03/08 01:03:22;;;;;;;13.30;11.85;;;;;;;;;;520242;28;866;-77
2022/03/08 01:03:37;;;;;;;14.73;12.10;;;;;;;;;;521938;28;1001;-77
2022/03/08 01:03:52;;;;;;;15.07;12.03;;;;;;;;;;521972;28;839;-77
2022/03/08 01:04:08;;;;;;;15.02;11.70;;;;;;;;;;521858;28;1428;-77
2022/03/08 01:04:23;;;;;;;13.90;11.10;;;;;;;;;;522083;28;740;-77
2022/03/08 01:04:39;;;;;;;12.90;11.10;;;;;;;;;;518038;28;1465;-77
2022/03/08 01:04:54;;;;;;;14.17;11.50;;;;;;;;;;517612;28;1743;-77
2022/03/08 01:05:10;;;;;;;13.63;11.38;;;;;;;;;;517276;28;1410;-77
2022/03/08 01:05:26;;;;;;;14.30;11.60;;;;;;;;;;517745;28;1199;-77
2022/03/08 01:05:41;;;;;;;15.20;11.68;;;;;;;;;;517432;28;1190;-77
2022/03/08 01:05:56;;;;;;;14.00;11.80;;;;;;;;;;517849;28;1249;-77
2022/03/08 01:06:12;;;;;;;14.20;11.70;;;;;;;;;;517874;28;918;-77
2022/03/08 01:06:27;;;;;;;14.80;11.52;;;;;;;;;;518118;28;862;-77
2022/03/08 01:06:43;;;;;;;14.73;11.63;;;;;;;;;;519472;28;890;-77
2022/03/08 01:06:58;;;;;;;14.43;11.70;;;;;;;;;;520366;28;860;-77
2022/03/08 01:07:14;;;;;;;13.77;11.40;;;;;;;;;;522010;28;807;-77
2022/03/08 01:07:29;;;;;;;13.68;10.80;;;;;;;;;;522605;28;802;-77
2022/03/08 01:07:45;;;;;;;14.30;11.07;;;;;;;;;;524065;28;847;-77
2022/03/08 01:08:02;;;;;;;13.30;11.13;;;;;;;;;;521369;28;1249;-77
2022/03/08 01:08:18;;;;;;;12.27;10.85;;;;;;;;;;520252;28;1273;-77
2022/03/08 01:08:33;;;;;;;12.52;10.77;;;;;;;;;;520439;28;787;-78
2022/03/08 01:08:48;;;;;;;13.43;10.80;;;;;;;;;;517785;28;1236;-77
2022/03/08 01:09:04;;;;;;;13.80;11.07;;;;;;;;;;516144;28;1156;-77
2022/03/08 01:09:19;;;;;;;13.75;11.07;;;;;;;;;;516228;28;1252;-77
2022/03/08 01:09:34;;;;;;;13.80;11.33;;;;;;;;;;516547;28;1223;-77
2022/03/08 01:09:50;;;;;;;13.57;11.67;;;;;;;;;;518423;28;749;-78
2022/03/08 01:10:08;;;;;;;12.85;11.45;;;;;;;;;;520291;28;787;-77
2022/03/08 01:10:24;;;;;;;12.98;11.32;;;;;;;;;;522451;28;812;-77
2022/03/08 01:10:40;;;;;;;13.15;11.50;;;;;;;;;;520165;28;1483;-77
2022/03/08 01:10:55;;;;;;;12.82;11.18;;;;;;;;;;519872;28;740;-78
2022/03/08 01:11:10;;;;;;;13.17;11.33;;;;;;;;;;518776;28;1247;-77
2022/03/08 01:11:26;;;;;;;13.00;11.25;;;;;;;;;;519953;28;807;-77
2022/03/08 01:11:42;;;;;;;13.57;11.43;;;;;;;;;;520110;28;1452;-77
2022/03/08 01:11:57;;;;;;;14.18;11.77;;;;;;;;;;520293;28;812;-77
2022/03/08 01:12:13;;;;;;;14.43;11.80;;;;;;;;;;517951;28;1260;-77
2022/03/08 01:12:28;;;;;;;14.30;11.93;;;;;;;;;;518151;28;816;-77
2022/03/08 01:12:45;;;;;;;14.47;11.90;;;;;;;;;;518087;28;990;-77
2022/03/08 01:13:00;;;;;;;14.85;11.77;;;;;;;;;;518153;28;1333;-78
2022/03/08 01:13:16;;;;;;;13.68;11.50;;;;;;;;;;520231;28;733;-77
2022/03/08 01:13:31;;;;;;;14.17;11.60;;;;;;;;;;520880;28;808;-77
2022/03/08 01:13:46;;;;;;;13.63;11.50;;;;;;;;;;522339;28;835;-77
2022/03/08 01:14:03;;;;;;;14.10;11.40;;;;;;;;;;522859;28;1052;-77
2022/03/08 01:14:19;;;;;;;13.30;11.27;;;;;;;;;;524587;28;970;-77
2022/03/08 01:14:35;;;;;;;12.90;10.98;;;;;;;;;;524088;28;828;-77
2022/03/08 01:14:51;;;;;;;13.77;11.40;;;;;;;;;;523921;28;786;-78
2022/03/08 01:15:08;;;;;;;13.75;11.80;;;;;;;;;;521766;28;1317;-77
2022/03/08 01:15:24;;;;;;;13.25;11.60;;;;;;;;;;522126;28;1518;-77
2022/03/08 01:15:40;;;;;;;13.60;11.50;;;;;;;;;;522455;28;938;-77
2022/03/08 01:15:55;;;;;;;14.30;11.70;;;;;;;;;;522485;28;785;-77
2022/03/08 01:16:10;;;;;;;13.10;11.43;;;;;;;;;;520313;28;1266;-77
2022/03/08 01:16:25;;;;;;;13.27;11.40;;;;;;;;;;518125;28;1258;-77
2022/03/08 01:16:41;;;;;;;13.83;11.83;;;;;;;;;;518313;28;815;-77
2022/03/08 01:16:56;;;;;;;13.15;11.75;;;;;;;;;;518144;28;922;-77
2022/03/08 01:17:11;;;;;;;13.10;11.70;;;;;;;;;;518004;28;978;-77
2022/03/08 01:17:27;;;;;;;13.23;11.70;;;;;;;;;;520171;28;856;-77
2022/03/08 01:17:43;;;;;;;12.98;11.43;;;;;;;;;;520165;28;748;-77
2022/03/08 01:17:59;;;;;;;12.68;11.32;;;;;;;;;;520493;28;950;-77
2022/03/08 01:18:14;;;;;;;12.82;11.43;;;;;;;;;;522259;28;942;-77
2022/03/08 01:18:30;;;;;;;12.90;11.50;;;;;;;;;;522198;28;1347;-77
2022/03/08 01:18:45;;;;;;;13.02;11.63;;;;;;;;;;520119;28;1309;-77
2022/03/08 01:19:01;;;;;;;13.13;11.73;;;;;;;;;;520112;28;776;-77
2022/03/08 01:19:16;;;;;;;13.88;11.57;;;;;;;;;;519858;28;736;-77
2022/03/08 01:19:31;;;;;;;13.87;11.30;;;;;;;;;;519972;28;1451;-77
2022/03/08 01:19:47;;;;;;;13.52;11.30;;;;;;;;;;519132;28;2029;-77
2022/03/08 01:20:05;;;;;;;13.17;11.40;;;;;;;;;;520209;28;740;-77
2022/03/08 01:20:21;;;;;;;12.75;11.45;;;;;;;;;;518887;28;1214;-77
2022/03/08 01:20:36;;;;;;;12.93;11.53;;;;;;;;;;518206;28;1263;-77
2022/03/08 01:20:51;;;;;;;13.93;11.43;;;;;;;;;;518315;28;906;-77
2022/03/08 01:21:07;;;;;;;14.50;11.40;;;;;;;;;;518189;28;764;-77
2022/03/08 01:21:22;;;;;;;13.73;11.47;;;;;;;;;;517678;28;677;-77
2022/03/08 01:21:37;;;;;;;12.27;10.93;;;;;;;;;;518914;28;773;-77
2022/03/08 01:21:53;;;;;;;11.98;10.65;;;;;;;;;;520316;28;768;-77
2022/03/08 01:22:11;;;;;;;12.27;10.97;;;;;;;;;;520430;28;836;-77
2022/03/08 01:22:26;;;;;;;12.70;11.40;;;;;;;;;;520443;28;1450;-77
2022/03/08 01:22:42;;;;;;;12.93;11.53;;;;;;;;;;522344;28;855;-77
2022/03/08 01:22:57;;;;;;;13.03;11.43;;;;;;;;;;522038;28;724;-77
2022/03/08 01:23:12;;;;;;;13.20;11.67;;;;;;;;;;520052;28;1219;-77
2022/03/08 01:23:27;;;;;;;13.40;11.83;;;;;;;;;;519838;28;756;-77
2022/03/08 01:23:43;;;;;;;13.07;11.60;;;;;;;;;;520065;28;804;-78
2022/03/08 01:23:58;;;;;;;12.90;11.50;;;;;;;;;;520218;28;811;-77
2022/03/08 01:24:14;;;;;;;12.73;11.37;;;;;;;;;;520412;28;855;-77
2022/03/08 01:24:30;;;;;;;13.23;11.43;;;;;;;;;;522111;28;796;-78
2022/03/08 01:24:45;;;;;;;13.45;11.68;;;;;;;;;;521912;28;823;-77
2022/03/08 01:25:01;;;;;;;12.98;11.60;;;;;;;;;;520177;28;1227;-77
2022/03/08 01:25:18;;;;;;;12.80;11.50;;;;;;;;;;519778;28;1171;-77
2022/03/08 01:25:34;;;;;;;13.50;11.52;;;;;;;;;;519745;28;1142;-77
2022/03/08 01:25:49;;;;;;;13.55;11.82;;;;;;;;;;520158;28;819;-77
2022/03/08 01:26:04;;;;;;;13.57;11.90;;;;;;;;;;520128;28;970;-77
2022/03/08 01:26:19;;;;;;;14.43;12.10;;;;;;;;;;520225;28;1241;-77
2022/03/08 01:26:35;;;;;;;14.67;12.00;;;;;;;;;;520381;28;951;-77
2022/03/08 01:26:50;;;;;;;13.48;11.77;;;;;;;;;;520437;28;756;-77
2022/03/08 01:27:05;;;;;;;13.67;11.60;;;;;;;;;;520762;28;776;-77
2022/03/08 01:27:21;;;;;;;13.27;11.33;;;;;;;;;;522199;28;796;-77
2022/03/08 01:27:36;;;;;;;12.75;11.45;;;;;;;;;;521921;28;1005;-77
2022/03/08 01:27:52;;;;;;;13.03;11.50;;;;;;;;;;521993;28;1525;-77
2022/03/08 01:28:08;;;;;;;13.35;11.85;;;;;;;;;;522348;28;756;-77
2022/03/08 01:28:23;;;;;;;13.45;12.02;;;;;;;;;;520168;28;1196;-77
2022/03/08 01:28:38;;;;;;;13.33;11.67;;;;;;;;;;520335;28;831;-77
2022/03/08 01:28:53;;;;;;;13.47;11.73;;;;;;;;;;520410;28;771;-77
2022/03/08 01:29:09;;;;;;;13.38;11.85;;;;;;;;;;520393;28;832;-77
2022/03/08 01:29:25;;;;;;;13.53;11.70;;;;;;;;;;520229;28;860;-77
2022/03/08 01:29:40;;;;;;;14.52;11.60;;;;;;;;;;519678;28;768;-77
2022/03/08 01:29:55;;;;;;;15.07;12.20;;;;;;;;;;522204;28;883;-77
2022/03/08 01:30:14;;;;;;;15.43;12.75;;;;;;;;;;522124;28;842;-77
2022/03/08 01:30:29;;;;;;;16.13;12.85;;;;;;;;;;523662;28;1213;-77
2022/03/08 01:30:44;;;;;;;16.53;13.13;;;;;;;;;;522491;28;1131;-77
2022/03/08 01:31:00;;;;;;;16.50;13.30;;;;;;;;;;519320;28;1595;-77
2022/03/08 01:31:16;;;;;;;16.02;12.80;;;;;;;;;;519847;28;1441;-78
2022/03/08 01:31:31;;;;;;;15.67;12.20;;;;;;;;;;520088;28;1410;-77
2022/03/08 01:31:46;;;;;;;15.23;12.32;;;;;;;;;;519098;28;1530;-77
2022/03/08 01:32:03;;;;;;;14.67;12.53;;;;;;;;;;520107;28;840;-77
2022/03/08 01:32:18;;;;;;;13.70;12.15;;;;;;;;;;520331;28;768;-77
2022/03/08 01:32:33;;;;;;;12.98;11.57;;;;;;;;;;522498;28;795;-77
2022/03/08 01:32:49;;;;;;;12.97;11.27;;;;;;;;;;524409;28;1280;-77
2022/03/08 01:33:04;;;;;;;13.60;11.63;;;;;;;;;;526223;28;1305;-77
2022/03/08 01:33:19;;;;;;;13.60;11.93;;;;;;;;;;526317;28;948;-77
2022/03/08 01:33:35;;;;;;;13.27;11.87;;;;;;;;;;526424;28;906;-77
2022/03/08 01:33:51;;;;;;;13.20;11.80;;;;;;;;;;523701;28;1259;-77
2022/03/08 01:34:06;;;;;;;13.63;12.00;;;;;;;;;;524299;28;1001;-77
2022/03/08 01:34:22;;;;;;;14.50;12.30;;;;;;;;;;524250;28;977;-77
2022/03/08 01:34:37;;;;;;;14.73;12.50;;;;;;;;;;521726;28;1164;-77